sensor_id;sensor_type;location;lat;lon;timestamp;pressure;altitude;pressure_sealevel;temperature;humidity
39449;BME280;25151;45.566;9.382;2022-08-01T00:02:12;99600.53;;;28.23;42.33
39449;BME280;25151;45.566;9.382;2022-08-01T00:05:13;99599.53;;;28.26;42.34
39449;BME280;25151;45.566;9.382;2022-08-01T00:08:14;99603.13;;;28.26;41.96
39449;BME280;25151;45.566;9.382;2022-08-01T00:11:14;99603.91;;;28.27;42.08
39449;BME280;25151;45.566;9.382;2022-08-01T00:14:15;99605.19;;;28.26;42.02
39449;BME280;25151;45.566;9.382;2022-08-01T00:17:15;99603.13;;;28.26;42.36
39449;BME280;25151;45.566;9.382;2022-08-01T00:20:17;99608.56;;;28.24;42.17
39449;BME280;25151;45.566;9.382;2022-08-01T00:23:18;99599.28;;;28.24;42.25
39449;BME280;25151;45.566;9.382;2022-08-01T00:26:19;99603.13;;;28.26;42.20
39449;BME280;25151;45.566;9.382;2022-08-01T00:29:20;99605.72;;;28.24;42.52
39449;BME280;25151;45.566;9.382;2022-08-01T00:32:20;99601.81;;;28.22;42.65
39449;BME280;25151;45.566;9.382;2022-08-01T00:35:21;99595.63;;;28.23;42.15
39449;BME280;25151;45.566;9.382;2022-08-01T00:38:22;99596.69;;;28.26;42.71
39449;BME280;25151;45.566;9.382;2022-08-01T00:41:22;99601.59;;;28.25;42.42
39449;BME280;25151;45.566;9.382;2022-08-01T00:44:23;99596.94;;;28.22;42.79
39449;BME280;25151;45.566;9.382;2022-08-01T00:47:23;99592.56;;;28.21;42.65
39449;BME280;25151;45.566;9.382;2022-08-01T00:50:24;99598.47;;;28.23;42.78
39449;BME280;25151;45.566;9.382;2022-08-01T00:53:25;99597.69;;;28.23;42.80
39449;BME280;25151;45.566;9.382;2022-08-01T00:56:26;99601.06;;;28.21;42.74
39449;BME280;25151;45.566;9.382;2022-08-01T00:59:27;99600.28;;;28.21;42.63
39449;BME280;25151;45.566;9.382;2022-08-01T01:02:27;99612.94;;;28.25;42.58
39449;BME280;25151;45.566;9.382;2022-08-01T01:05:28;99598.75;;;28.25;42.64
39449;BME280;25151;45.566;9.382;2022-08-01T01:08:43;99594.63;;;28.21;42.65
39449;BME280;25151;45.566;9.382;2022-08-01T01:15:08;99602.34;;;28.26;43.07
39449;BME280;25151;45.566;9.382;2022-08-01T01:18:33;99604.72;;;28.27;42.60
39449;BME280;25151;45.566;9.382;2022-08-01T01:21:46;99591.25;;;28.22;42.96
39449;BME280;25151;45.566;9.382;2022-08-01T01:28:27;99593.38;;;28.27;43.05
39449;BME280;25151;45.566;9.382;2022-08-01T01:31:39;99596.69;;;28.26;43.36
39449;BME280;25151;45.566;9.382;2022-08-01T01:34:44;99598.75;;;28.25;42.98
39449;BME280;25151;45.566;9.382;2022-08-01T01:37:47;99595.91;;;28.25;42.97
39449;BME280;25151;45.566;9.382;2022-08-01T01:40:50;99603.91;;;28.27;43.13
39449;BME280;25151;45.566;9.382;2022-08-01T01:43:52;99600.28;;;28.26;42.98
39449;BME280;25151;45.566;9.382;2022-08-01T01:46:53;99592.56;;;28.27;43.13
39449;BME280;25151;45.566;9.382;2022-08-01T01:49:57;99582.25;;;28.24;43.34
39449;BME280;25151;45.566;9.382;2022-08-01T01:53:01;99595.91;;;28.25;42.97
39449;BME280;25151;45.566;9.382;2022-08-01T01:56:03;99594.38;;;28.24;43.18
39449;BME280;25151;45.566;9.382;2022-08-01T01:59:04;99594.38;;;28.24;43.01
39449;BME280;25151;45.566;9.382;2022-08-01T02:02:06;99598.47;;;28.23;43.16
39449;BME280;25151;45.566;9.382;2022-08-01T02:05:09;99612.66;;;28.23;43.38
39449;BME280;25151;45.566;9.382;2022-08-01T02:08:11;99598.47;;;28.23;43.29
39449;BME280;25151;45.566;9.382;2022-08-01T02:11:14;99611.63;;;28.26;43.56
39449;BME280;25151;45.566;9.382;2022-08-01T02:14:24;99608.03;;;28.26;43.37
39449;BME280;25151;45.566;9.382;2022-08-01T02:17:27;99605.97;;;28.26;43.55
39449;BME280;25151;45.566;9.382;2022-08-01T02:20:29;99607.25;;;28.25;43.30
39449;BME280;25151;45.566;9.382;2022-08-01T02:23:34;99601.59;;;28.25;43.36
39449;BME280;25151;45.566;9.382;2022-08-01T02:26:39;99604.72;;;28.27;43.61
39449;BME280;25151;45.566;9.382;2022-08-01T02:29:50;99599.06;;;27.84;43.12
39449;BME280;25151;45.566;9.382;2022-08-01T02:33:02;99607.50;;;27.47;43.62
39449;BME280;25151;45.566;9.382;2022-08-01T02:36:04;99605.63;;;27.38;43.00
39449;BME280;25151;45.566;9.382;2022-08-01T02:39:09;99600.88;;;27.24;42.83
39449;BME280;25151;45.566;9.382;2022-08-01T02:42:11;99609.94;;;27.28;42.23
39449;BME280;25151;45.566;9.382;2022-08-01T02:45:15;99607.78;;;27.17;42.56
39449;BME280;25151;45.566;9.382;2022-08-01T02:48:18;99615.44;;;27.11;42.47
39449;BME280;25151;45.566;9.382;2022-08-01T02:51:21;99623.56;;;27.04;42.98
39449;BME280;25151;45.566;9.382;2022-08-01T02:54:23;99620.59;;;26.92;43.36
39449;BME280;25151;45.566;9.382;2022-08-01T02:57:27;99616.78;;;26.95;43.44
39449;BME280;25151;45.566;9.382;2022-08-01T03:00:29;99617.84;;;26.98;43.25
39449;BME280;25151;45.566;9.382;2022-08-01T03:03:31;99617.63;;;27.02;43.29
39449;BME280;25151;45.566;9.382;2022-08-01T03:06:33;99616.22;;;26.91;43.25
39449;BME280;25151;45.566;9.382;2022-08-01T03:09:38;99620.28;;;26.85;42.90
39449;BME280;25151;45.566;9.382;2022-08-01T03:12:40;99618.94;;;26.80;42.75
39449;BME280;25151;45.566;9.382;2022-08-01T03:15:43;99612.84;;;26.87;42.99
39449;BME280;25151;45.566;9.382;2022-08-01T03:18:44;99615.19;;;26.89;42.94
39449;BME280;25151;45.566;9.382;2022-08-01T03:21:47;99610.63;;;26.71;43.39
39449;BME280;25151;45.566;9.382;2022-08-01T03:24:52;99620.16;;;26.73;43.62
39449;BME280;25151;45.566;9.382;2022-08-01T03:27:58;99621.50;;;26.78;43.66
39449;BME280;25151;45.566;9.382;2022-08-01T03:31:00;99617.34;;;26.73;43.08
39449;BME280;25151;45.566;9.382;2022-08-01T03:34:02;99609.44;;;26.57;43.38
39449;BME280;25151;45.566;9.382;2022-08-01T03:37:13;99620.59;;;26.66;43.16
39449;BME280;25151;45.566;9.382;2022-08-01T03:44:13;99615.16;;;26.63;43.45
39449;BME280;25151;45.566;9.382;2022-08-01T03:47:16;99624.41;;;26.63;43.36
39449;BME280;25151;45.566;9.382;2022-08-01T03:50:20;99619.97;;;26.77;43.27
39449;BME280;25151;45.566;9.382;2022-08-01T03:53:25;99618.59;;;26.72;43.04
39449;BME280;25151;45.566;9.382;2022-08-01T03:56:27;99621.94;;;26.71;42.99
39449;BME280;25151;45.566;9.382;2022-08-01T03:59:34;99625.34;;;26.55;43.10
39449;BME280;25151;45.566;9.382;2022-08-01T04:02:37;99625.47;;;26.66;43.33
39449;BME280;25151;45.566;9.382;2022-08-01T04:05:41;99634.53;;;26.70;43.32
39449;BME280;25151;45.566;9.382;2022-08-01T04:08:42;99635.00;;;26.68;42.84
39449;BME280;25151;45.566;9.382;2022-08-01T04:11:43;99631.56;;;26.59;43.70
39449;BME280;25151;45.566;9.382;2022-08-01T04:14:43;99635.66;;;26.58;43.78
39449;BME280;25151;45.566;9.382;2022-08-01T04:17:46;99642.81;;;26.53;43.72
39449;BME280;25151;45.566;9.382;2022-08-01T04:20:47;99642.56;;;26.36;43.80
39449;BME280;25151;45.566;9.382;2022-08-01T04:23:49;99641.50;;;26.34;43.99
39449;BME280;25151;45.566;9.382;2022-08-01T04:26:52;99645.69;;;26.38;44.16
39449;BME280;25151;45.566;9.382;2022-08-01T04:29:55;99647.63;;;26.32;43.86
39449;BME280;25151;45.566;9.382;2022-08-01T04:32:59;99656.69;;;26.36;43.85
39449;BME280;25151;45.566;9.382;2022-08-01T04:36:02;99651.34;;;26.38;43.47
39449;BME280;25151;45.566;9.382;2022-08-01T04:39:04;99653.84;;;26.36;43.35
39449;BME280;25151;45.566;9.382;2022-08-01T04:42:05;99645.88;;;26.35;43.72
39449;BME280;25151;45.566;9.382;2022-08-01T04:45:07;99659.31;;;26.40;43.29
39449;BME280;25151;45.566;9.382;2022-08-01T04:48:09;99657.41;;;26.31;43.49
39449;BME280;25151;45.566;9.382;2022-08-01T04:51:17;99660.28;;;26.37;43.55
39449;BME280;25151;45.566;9.382;2022-08-01T04:54:22;99661.66;;;26.41;43.26
39449;BME280;25151;45.566;9.382;2022-08-01T04:57:22;99659.41;;;26.66;42.95
39449;BME280;25151;45.566;9.382;2022-08-01T05:00:23;99652.06;;;26.54;42.82
39449;BME280;25151;45.566;9.382;2022-08-01T05:03:24;99660.38;;;26.42;43.17
39449;BME280;25151;45.566;9.382;2022-08-01T05:06:24;99652.59;;;26.37;43.16
39449;BME280;25151;45.566;9.382;2022-08-01T05:09:26;99653.75;;;26.66;42.60
39449;BME280;25151;45.566;9.382;2022-08-01T05:12:26;99651.19;;;26.68;42.47
39449;BME280;25151;45.566;9.382;2022-08-01T05:15:27;99651.06;;;26.57;42.57
39449;BME280;25151;45.566;9.382;2022-08-01T05:18:27;99648.41;;;26.33;43.01
39449;BME280;25151;45.566;9.382;2022-08-01T05:21:28;99658.94;;;26.32;43.06
39449;BME280;25151;45.566;9.382;2022-08-01T05:24:28;99659.09;;;26.43;42.90
39449;BME280;25151;45.566;9.382;2022-08-01T05:27:29;99647.66;;;26.53;42.75
39449;BME280;25151;45.566;9.382;2022-08-01T05:30:29;99655.38;;;26.52;43.12
39449;BME280;25151;45.566;9.382;2022-08-01T05:33:30;99638.19;;;26.56;42.80
39449;BME280;25151;45.566;9.382;2022-08-01T05:36:31;99651.97;;;26.68;42.77
39449;BME280;25151;45.566;9.382;2022-08-01T05:39:31;99654.47;;;26.81;42.42
39449;BME280;25151;45.566;9.382;2022-08-01T05:42:32;99653.75;;;26.86;42.48
39449;BME280;25151;45.566;9.382;2022-08-01T05:45:32;99653.22;;;26.88;42.45
39449;BME280;25151;45.566;9.382;2022-08-01T05:48:33;99643.53;;;26.94;42.11
39449;BME280;25151;45.566;9.382;2022-08-01T05:51:33;99649.19;;;26.94;42.17
39449;BME280;25151;45.566;9.382;2022-08-01T05:54:34;99643.75;;;26.91;42.23
39449;BME280;25151;45.566;9.382;2022-08-01T05:57:35;99643.53;;;26.94;42.35
39449;BME280;25151;45.566;9.382;2022-08-01T06:00:35;99651.59;;;27.02;42.53
39449;BME280;25151;45.566;9.382;2022-08-01T06:03:36;99648.25;;;27.03;42.39
39449;BME280;25151;45.566;9.382;2022-08-01T06:06:36;99640.28;;;27.02;42.30
39449;BME280;25151;45.566;9.382;2022-08-01T06:09:37;99650.59;;;27.05;42.26
39449;BME280;25151;45.566;9.382;2022-08-01T06:12:37;99647.78;;;27.05;42.17
39449;BME280;25151;45.566;9.382;2022-08-01T06:15:38;99654.28;;;27.11;42.20
39449;BME280;25151;45.566;9.382;2022-08-01T06:18:39;99652.69;;;27.10;41.96
39449;BME280;25151;45.566;9.382;2022-08-01T06:21:39;99660.50;;;27.15;41.97
39449;BME280;25151;45.566;9.382;2022-08-01T06:24:40;99654.28;;;27.11;41.98
39449;BME280;25151;45.566;9.382;2022-08-01T06:27:40;99663.63;;;27.17;41.55
39449;BME280;25151;45.566;9.382;2022-08-01T06:30:44;99657.44;;;27.18;41.83
39449;BME280;25151;45.566;9.382;2022-08-01T06:33:44;99659.28;;;27.21;41.76
39449;BME280;25151;45.566;9.382;2022-08-01T06:36:45;99662.16;;;27.27;41.60
39449;BME280;25151;45.566;9.382;2022-08-01T06:39:46;99660.31;;;27.24;41.66
39449;BME280;25151;45.566;9.382;2022-08-01T06:42:47;99671.19;;;27.31;41.41
39449;BME280;25151;45.566;9.382;2022-08-01T06:45:48;99671.50;;;27.33;41.55
39449;BME280;25151;45.566;9.382;2022-08-01T06:48:49;99675.34;;;27.36;41.54
39449;BME280;25151;45.566;9.382;2022-08-01T06:51:49;99664.03;;;27.36;41.92
39449;BME280;25151;45.566;9.382;2022-08-01T06:54:51;99669.22;;;27.37;41.74
39449;BME280;25151;45.566;9.382;2022-08-01T06:57:52;99671.03;;;27.40;41.82
39449;BME280;25151;45.566;9.382;2022-08-01T07:00:53;99674.91;;;27.43;41.64
39449;BME280;25151;45.566;9.382;2022-08-01T07:03:53;99670.03;;;27.43;41.83
39449;BME280;25151;45.566;9.382;2022-08-01T07:06:54;99678.81;;;27.45;42.09
39449;BME280;25151;45.566;9.382;2022-08-01T07:09:55;99678.28;;;27.47;41.89
39449;BME280;25151;45.566;9.382;2022-08-01T07:12:56;99680.13;;;27.50;42.06
39449;BME280;25151;45.566;9.382;2022-08-01T07:15:57;99679.34;;;27.50;42.20
39449;BME280;25151;45.566;9.382;2022-08-01T07:18:57;99681.19;;;27.53;42.61
39449;BME280;25151;45.566;9.382;2022-08-01T07:21:58;99672.97;;;27.55;42.61
39449;BME280;25151;45.566;9.382;2022-08-01T07:24:58;99680.16;;;27.56;42.86
39449;BME280;25151;45.566;9.382;2022-08-01T07:27:59;99670.41;;;27.57;42.89
39449;BME280;25151;45.566;9.382;2022-08-01T07:31:00;99670.41;;;27.57;42.94
39449;BME280;25151;45.566;9.382;2022-08-01T07:34:00;99672.97;;;27.55;42.92
39449;BME280;25151;45.566;9.382;2022-08-01T07:37:01;99668.13;;;27.61;43.05
39449;BME280;25151;45.566;9.382;2022-08-01T07:40:02;99666.84;;;27.62;43.11
39449;BME280;25151;45.566;9.382;2022-08-01T07:43:04;99675.63;;;27.64;42.90
39449;BME280;25151;45.566;9.382;2022-08-01T07:46:06;99673.06;;;27.66;43.18
39449;BME280;25151;45.566;9.382;2022-08-01T07:49:07;99673.84;;;27.66;42.81
39449;BME280;25151;45.566;9.382;2022-08-01T07:52:08;99655.00;;;27.63;43.29
39449;BME280;25151;45.566;9.382;2022-08-01T07:55:12;99673.88;;;27.72;43.00
39449;BME280;25151;45.566;9.382;2022-08-01T07:58:14;99662.00;;;27.68;42.88
39449;BME280;25151;45.566;9.382;2022-08-01T08:01:15;99665.88;;;27.70;43.02
39449;BME280;25151;45.566;9.382;2022-08-01T08:04:16;99674.66;;;27.73;43.44
39449;BME280;25151;45.566;9.382;2022-08-01T08:07:16;99659.44;;;27.70;42.98
39449;BME280;25151;45.566;9.382;2022-08-01T08:10:19;99668.00;;;27.76;42.92
39449;BME280;25151;45.566;9.382;2022-08-01T08:13:23;99671.63;;;27.76;42.88
39449;BME280;25151;45.566;9.382;2022-08-01T08:16:24;99666.16;;;27.73;43.34
39449;BME280;25151;45.566;9.382;2022-08-01T08:19:28;99655.31;;;27.71;42.73
39449;BME280;25151;45.566;9.382;2022-08-01T08:22:29;99663.13;;;27.76;43.21
39449;BME280;25151;45.566;9.382;2022-08-01T08:25:32;99663.13;;;27.76;43.19
39449;BME280;25151;45.566;9.382;2022-08-01T08:28:36;99674.78;;;27.84;42.98
39449;BME280;25151;45.566;9.382;2022-08-01T08:31:39;99674.47;;;27.76;43.39
39449;BME280;25151;45.566;9.382;2022-08-01T08:34:40;99657.25;;;27.54;42.93
39449;BME280;25151;45.566;9.382;2022-08-01T08:37:44;99675.75;;;27.49;42.81
39449;BME280;25151;45.566;9.382;2022-08-01T08:40:48;99670.75;;;27.38;42.15
39449;BME280;25151;45.566;9.382;2022-08-01T08:43:49;99674.81;;;27.32;41.77
39449;BME280;25151;45.566;9.382;2022-08-01T08:46:51;99672.22;;;27.28;41.47
39449;BME280;25151;45.566;9.382;2022-08-01T08:49:54;99665.53;;;27.31;40.84
39449;BME280;25151;45.566;9.382;2022-08-01T08:52:58;99672.91;;;27.23;40.95
39449;BME280;25151;45.566;9.382;2022-08-01T08:56:01;99672.38;;;27.19;40.60
39449;BME280;25151;45.566;9.382;2022-08-01T08:59:05;99669.53;;;27.19;40.24
39449;BME280;25151;45.566;9.382;2022-08-01T09:02:07;99668.97;;;27.15;39.96
39449;BME280;25151;45.566;9.382;2022-08-01T09:05:10;99680.13;;;27.24;39.43
39449;BME280;25151;45.566;9.382;2022-08-01T09:08:11;99674.72;;;27.20;39.13
39449;BME280;25151;45.566;9.382;2022-08-01T09:11:12;99663.06;;;27.13;38.95
39449;BME280;25151;45.566;9.382;2022-08-01T09:14:16;99662.03;;;27.16;38.91
39449;BME280;25151;45.566;9.382;2022-08-01T09:17:24;99657.66;;;27.15;38.67
39449;BME280;25151;45.566;9.382;2022-08-01T09:20:29;99651.44;;;27.11;38.72
39449;BME280;25151;45.566;9.382;2022-08-01T09:23:55;99656.00;;;27.08;38.39
39449;BME280;25151;45.566;9.382;2022-08-01T09:26:59;99657.94;;;27.17;38.39
39449;BME280;25151;45.566;9.382;2022-08-01T09:30:13;99654.84;;;27.15;37.97
39449;BME280;25151;45.566;9.382;2022-08-01T09:33:14;99663.63;;;27.17;37.76
39449;BME280;25151;45.566;9.382;2022-08-01T09:36:25;99663.06;;;27.13;38.14
39449;BME280;25151;45.566;9.382;2022-08-01T09:39:32;99663.63;;;27.17;37.74
39449;BME280;25151;45.566;9.382;2022-08-01T09:42:34;99651.94;;;27.09;37.64
39449;BME280;25151;45.566;9.382;2022-08-01T09:45:39;99646.47;;;27.06;37.45
39449;BME280;25151;45.566;9.382;2022-08-01T09:49:00;99654.91;;;27.20;37.74
39449;BME280;25151;45.566;9.382;2022-08-01T09:52:21;99655.91;;;27.17;37.76
39449;BME280;25151;45.566;9.382;2022-08-01T09:55:27;99648.41;;;27.14;37.63
39449;BME280;25151;45.566;9.382;2022-08-01T09:58:29;99648.94;;;27.18;37.65
39449;BME280;25151;45.566;9.382;2022-08-01T10:01:49;99644.06;;;27.19;37.85
39449;BME280;25151;45.566;9.382;2022-08-01T10:04:51;99633.19;;;27.12;38.06
39449;BME280;25151;45.566;9.382;2022-08-01T10:07:58;99647.13;;;27.15;38.10
39449;BME280;25151;45.566;9.382;2022-08-01T10:11:11;99640.41;;;27.13;38.09
39449;BME280;25151;45.566;9.382;2022-08-01T10:14:12;99633.47;;;27.14;38.20
39449;BME280;25151;45.566;9.382;2022-08-01T10:17:18;99632.69;;;27.13;38.43
39449;BME280;25151;45.566;9.382;2022-08-01T10:20:21;99627.22;;;27.10;38.30
39449;BME280;25151;45.566;9.382;2022-08-01T10:23:24;99628.50;;;27.09;38.26
39449;BME280;25151;45.566;9.382;2022-08-01T10:26:33;99626.94;;;27.08;38.30
39449;BME280;25151;45.566;9.382;2022-08-01T10:29:49;99626.94;;;27.08;37.97
39449;BME280;25151;45.566;9.382;2022-08-01T10:32:54;99610.69;;;27.03;37.77
39449;BME280;25151;45.566;9.382;2022-08-01T10:36:02;99607.88;;;27.03;37.67
39449;BME280;25151;45.566;9.382;2022-08-01T10:39:05;99604.25;;;27.02;37.95
39449;BME280;25151;45.566;9.382;2022-08-01T10:42:09;99607.91;;;27.08;37.80
39449;BME280;25151;45.566;9.382;2022-08-01T10:45:14;99606.88;;;27.06;37.42
39449;BME280;25151;45.566;9.382;2022-08-01T10:48:24;99607.41;;;27.10;37.25
39449;BME280;25151;45.566;9.382;2022-08-01T10:51:28;99616.63;;;27.31;37.26
39449;BME280;25151;45.566;9.382;2022-08-01T10:54:29;99606.94;;;27.43;37.37
39449;BME280;25151;45.566;9.382;2022-08-01T10:57:45;99604.97;;;27.49;37.35
39449;BME280;25151;45.566;9.382;2022-08-01T11:00:46;99606.81;;;27.58;37.54
39449;BME280;25151;45.566;9.382;2022-08-01T11:04:08;99601.69;;;27.62;37.41
39449;BME280;25151;45.566;9.382;2022-08-01T11:07:20;99602.75;;;27.64;37.77
39449;BME280;25151;45.566;9.382;2022-08-01T11:17:30;99580.41;;;27.72;37.66
39449;BME280;25151;45.566;9.382;2022-08-01T11:20:33;99573.47;;;27.73;37.99
39449;BME280;25151;45.566;9.382;2022-08-01T11:23:47;99566.53;;;27.74;38.48
39449;BME280;25151;45.566;9.382;2022-08-01T11:27:21;99561.91;;;27.77;38.33
39449;BME280;25151;45.566;9.382;2022-08-01T11:30:22;99554.44;;;27.79;38.65
39449;BME280;25151;45.566;9.382;2022-08-01T11:36:42;99546.22;;;27.81;38.71
39449;BME280;25151;45.566;9.382;2022-08-01T11:39:42;99540.56;;;27.81;38.45
39449;BME280;25151;45.566;9.382;2022-08-01T11:42:43;99546.47;;;27.83;38.91
39449;BME280;25151;45.566;9.382;2022-08-01T11:52:31;99531.31;;;27.86;39.06
39449;BME280;25151;45.566;9.382;2022-08-01T11:55:36;99521.28;;;27.85;39.31
39449;BME280;25151;45.566;9.382;2022-08-01T11:58:37;99528.00;;;27.88;39.14
39449;BME280;25151;45.566;9.382;2022-08-01T12:01:41;99521.53;;;27.87;39.49
39449;BME280;25151;45.566;9.382;2022-08-01T12:05:04;99513.31;;;27.89;39.30
39449;BME280;25151;45.566;9.382;2022-08-01T12:08:05;99508.41;;;27.90;39.31
39449;BME280;25151;45.566;9.382;2022-08-01T12:11:06;99497.84;;;27.90;39.66
39449;BME280;25151;45.566;9.382;2022-08-01T12:14:07;99507.63;;;27.89;39.35
39449;BME280;25151;45.566;9.382;2022-08-01T12:17:07;99500.97;;;27.92;39.43
39449;BME280;25151;45.566;9.382;2022-08-01T12:20:10;99496.31;;;27.95;39.81
39449;BME280;25151;45.566;9.382;2022-08-01T12:23:13;99487.03;;;27.94;39.50
39449;BME280;25151;45.566;9.382;2022-08-01T12:26:14;99484.97;;;27.95;39.98
39449;BME280;25151;45.566;9.382;2022-08-01T12:29:40;99480.88;;;27.96;39.76
39449;BME280;25151;45.566;9.382;2022-08-01T12:32:43;99482.16;;;27.95;40.08
39449;BME280;25151;45.566;9.382;2022-08-01T12:35:44;99473.91;;;27.97;39.90
39449;BME280;25151;45.566;9.382;2022-08-01T12:38:52;99472.38;;;27.96;39.95
39449;BME280;25151;45.566;9.382;2022-08-01T12:41:53;99469.03;;;27.98;39.93
39449;BME280;25151;45.566;9.382;2022-08-01T12:44:54;99473.41;;;27.99;40.04
39449;BME280;25151;45.566;9.382;2022-08-01T12:47:55;99464.13;;;27.98;40.06
39449;BME280;25151;45.566;9.382;2022-08-01T12:50:59;99463.34;;;27.98;39.85
39449;BME280;25151;45.566;9.382;2022-08-01T12:54:01;99456.69;;;28.01;40.21
39449;BME280;25151;45.566;9.382;2022-08-01T12:57:04;99447.13;;;27.98;40.33
39449;BME280;25151;45.566;9.382;2022-08-01T13:00:17;99455.13;;;28.00;39.97
39449;BME280;25151;45.566;9.382;2022-08-01T13:03:19;99452.03;;;27.98;40.26
39449;BME280;25151;45.566;9.382;2022-08-01T13:06:20;99438.63;;;27.92;40.70
39449;BME280;25151;45.566;9.382;2022-08-01T13:09:21;99436.03;;;27.94;40.66
39449;BME280;25151;45.566;9.382;2022-08-01T13:12:22;99433.47;;;27.97;40.62
39449;BME280;25151;45.566;9.382;2022-08-01T13:15:30;99429.34;;;27.98;40.75
39449;BME280;25151;45.566;9.382;2022-08-01T13:18:35;99434.00;;;28.01;40.98
39449;BME280;25151;45.566;9.382;2022-08-01T13:21:36;99426.28;;;28.01;40.86
39449;BME280;25151;45.566;9.382;2022-08-01T13:24:40;99426.28;;;28.01;41.10
39449;BME280;25151;45.566;9.382;2022-08-01T13:27:42;99427.31;;;28.04;41.05
39449;BME280;25151;45.566;9.382;2022-08-01T13:31:12;99426.03;;;28.05;41.57
39449;BME280;25151;45.566;9.382;2022-08-01T13:34:12;99423.44;;;28.07;41.83
39449;BME280;25151;45.566;9.382;2022-08-01T13:37:13;99423.72;;;28.09;41.67
39449;BME280;25151;45.566;9.382;2022-08-01T13:40:23;99425.25;;;28.10;41.88
39449;BME280;25151;45.566;9.382;2022-08-01T13:43:24;99420.88;;;28.09;41.74
39449;BME280;25151;45.566;9.382;2022-08-01T13:46:24;99424.50;;;28.09;41.78
39449;BME280;25151;45.566;9.382;2022-08-01T13:49:25;99412.63;;;28.11;41.75
39449;BME280;25151;45.566;9.382;2022-08-01T13:52:26;99403.59;;;28.07;41.88
39449;BME280;25151;45.566;9.382;2022-08-01T13:55:26;99408.00;;;28.13;41.96
39449;BME280;25151;45.566;9.382;2022-08-01T13:58:27;99403.09;;;28.14;42.23
39449;BME280;25151;45.566;9.382;2022-08-01T14:01:28;99410.31;;;28.15;42.07
39449;BME280;25151;45.566;9.382;2022-08-01T14:04:29;99397.72;;;28.16;42.08
39449;BME280;25151;45.566;9.382;2022-08-01T14:07:30;99395.66;;;28.16;42.08
39449;BME280;25151;45.566;9.382;2022-08-01T14:10:30;99392.81;;;28.16;42.33
39449;BME280;25151;45.566;9.382;2022-08-01T14:13:31;99380.72;;;28.16;42.05
39449;BME280;25151;45.566;9.382;2022-08-01T14:16:34;99392.28;;;28.18;42.58
39449;BME280;25151;45.566;9.382;2022-08-01T14:19:39;99383.03;;;28.17;42.64
39449;BME280;25151;45.566;9.382;2022-08-01T14:22:40;99381.97;;;28.15;42.46
39449;BME280;25151;45.566;9.382;2022-08-01T14:25:41;99387.16;;;28.22;42.52
39449;BME280;25151;45.566;9.382;2022-08-01T14:28:41;99380.69;;;28.22;42.19
39449;BME280;25151;45.566;9.382;2022-08-01T14:31:42;99372.72;;;28.20;42.50
39449;BME280;25151;45.566;9.382;2022-08-01T14:34:43;99372.97;;;28.22;42.72
39449;BME280;25151;45.566;9.382;2022-08-01T14:37:43;99367.31;;;28.22;42.62
39449;BME280;25151;45.566;9.382;2022-08-01T14:40:44;99373.25;;;28.24;42.44
39449;BME280;25151;45.566;9.382;2022-08-01T14:43:47;99374.78;;;28.25;42.13
39449;BME280;25151;45.566;9.382;2022-08-01T14:46:50;99375.56;;;28.26;42.74
39449;BME280;25151;45.566;9.382;2022-08-01T14:49:51;99377.91;;;28.27;42.49
39449;BME280;25151;45.566;9.382;2022-08-01T14:52:52;99376.59;;;28.28;42.56
39449;BME280;25151;45.566;9.382;2022-08-01T14:55:53;99370.94;;;28.28;42.77
39449;BME280;25151;45.566;9.382;2022-08-01T14:58:57;99368.09;;;28.28;42.31
39449;BME280;25151;45.566;9.382;2022-08-01T15:02:03;99366.28;;;28.25;42.58
39449;BME280;25151;45.566;9.382;2022-08-01T15:05:07;99363.97;;;28.29;42.80
39449;BME280;25151;45.566;9.382;2022-08-01T15:08:08;99364.97;;;28.26;42.65
39449;BME280;25151;45.566;9.382;2022-08-01T15:11:09;99367.06;;;28.31;42.26
39449;BME280;25151;45.566;9.382;2022-08-01T15:14:09;99367.31;;;28.28;42.67
39449;BME280;25151;45.566;9.382;2022-08-01T15:17:30;99347.72;;;28.24;42.79
39449;BME280;25151;45.566;9.382;2022-08-01T15:20:32;99362.66;;;28.30;42.49
39449;BME280;25151;45.566;9.382;2022-08-01T15:23:33;99350.06;;;28.31;42.48
39449;BME280;25151;45.566;9.382;2022-08-01T15:26:33;99351.59;;;28.32;42.41
39449;BME280;25151;45.566;9.382;2022-08-01T15:29:34;99337.66;;;28.34;42.48
39449;BME280;25151;45.566;9.382;2022-08-01T15:32:35;99333.06;;;28.31;42.66
39449;BME280;25151;45.566;9.382;2022-08-01T15:35:36;99345.41;;;28.28;42.76
39449;BME280;25151;45.566;9.382;2022-08-01T15:38:40;99332.00;;;28.29;42.51
39449;BME280;25151;45.566;9.382;2022-08-01T15:41:41;99330.19;;;28.26;42.67
39449;BME280;25151;45.566;9.382;2022-08-01T15:44:43;99332.00;;;28.34;42.49
39449;BME280;25151;45.566;9.382;2022-08-01T15:47:44;99329.47;;;28.36;42.90
39449;BME280;25151;45.566;9.382;2022-08-01T15:50:45;99316.56;;;28.35;42.50
39449;BME280;25151;45.566;9.382;2022-08-01T15:53:50;99306.72;;;28.31;42.66
39449;BME280;25151;45.566;9.382;2022-08-01T15:56:51;99314.00;;;28.37;42.86
39449;BME280;25151;45.566;9.382;2022-08-01T15:59:52;99312.16;;;28.34;42.54
39449;BME280;25151;45.566;9.382;2022-08-01T16:02:52;99321.19;;;28.38;42.71
39449;BME280;25151;45.566;9.382;2022-08-01T16:05:54;99310.59;;;28.33;42.68
39449;BME280;25151;45.566;9.382;2022-08-01T16:08:55;99296.69;;;28.35;42.62
39449;BME280;25151;45.566;9.382;2022-08-01T16:11:59;99300.56;;;28.32;43.06
39449;BME280;25151;45.566;9.382;2022-08-01T16:15:03;99306.78;;;28.48;42.78
39449;BME280;25151;45.566;9.382;2022-08-01T16:18:07;99306.78;;;28.48;42.97
39449;BME280;25151;45.566;9.382;2022-08-01T16:21:09;99301.88;;;28.48;43.27
39449;BME280;25151;45.566;9.382;2022-08-01T16:24:15;99293.63;;;28.45;43.38
39449;BME280;25151;45.566;9.382;2022-08-01T16:27:16;99305.22;;;28.47;43.28
39449;BME280;25151;45.566;9.382;2022-08-01T16:30:18;99292.31;;;28.46;43.14
39449;BME280;25151;45.566;9.382;2022-08-01T16:33:18;99288.47;;;28.43;43.20
39449;BME280;25151;45.566;9.382;2022-08-01T16:36:20;99290.53;;;28.48;43.61
39449;BME280;25151;45.566;9.382;2022-08-01T16:39:22;99283.81;;;28.46;43.31